Time;durP1;ratioP1;P1;durP2;ratioP2;P2;SDS_P1;SDS_P2;PMS_P1;PMS_P2;Temp;Humidity;BMP_temperature;BMP_pressure;BME280_temperature;BME280_humidity;BME280_pressure;Samples;Min_cycle;Max_cycle;Signal;HPM_P1;HPM_P2
2023/01/14 00:01:05;;;;;;;;;;;21.50;36.40;;;;;;483486;246;2330;-43
2023/01/14 00:03:06;;;;;;;;;;;21.50;36.40;;;;;;483407;246;2055;-44
2023/01/14 00:05:08;;;;;;;;;;;21.50;36.40;;;;;;483379;246;2405;-44
2023/01/14 00:07:09;;;;;;;;;;;21.50;36.50;;;;;;483416;246;2938;-43
2023/01/14 00:09:10;;;;;;;;;;;21.40;36.40;;;;;;483482;246;1970;-44
2023/01/14 00:11:12;;;;;;;;;;;21.50;36.50;;;;;;483613;246;1912;-44
2023/01/14 00:13:13;;;;;;;;;;;21.50;36.50;;;;;;483588;246;3268;-43
2023/01/14 00:15:16;;;;;;;;;;;21.40;36.50;;;;;;483608;246;1655;-44
2023/01/14 00:17:16;;;;;;;;;;;21.40;36.50;;;;;;483490;246;2195;-44
2023/01/14 00:19:18;;;;;;;;;;;21.40;36.50;;;;;;483763;246;1950;-43
2023/01/14 00:21:18;;;;;;;;;;;21.40;36.50;;;;;;483738;246;2249;-44
2023/01/14 00:23:20;;;;;;;;;;;21.40;36.50;;;;;;484049;246;1978;-43
2023/01/14 00:25:21;;;;;;;;;;;21.40;36.60;;;;;;483861;246;2151;-43
2023/01/14 00:27:22;;;;;;;;;;;21.40;36.50;;;;;;483823;246;1692;-44
2023/01/14 00:29:24;;;;;;;;;;;21.40;36.50;;;;;;483918;246;1768;-43
2023/01/14 00:31:25;;;;;;;;;;;21.40;36.50;;;;;;483770;246;1950;-44
2023/01/14 00:33:26;;;;;;;;;;;21.40;36.50;;;;;;483616;246;2248;-43
2023/01/14 00:35:28;;;;;;;;;;;21.40;36.50;;;;;;483516;246;1763;-43
2023/01/14 00:37:29;;;;;;;;;;;21.40;36.50;;;;;;483570;246;2071;-43
2023/01/14 00:39:30;;;;;;;;;;;21.40;36.50;;;;;;483615;246;1896;-44
2023/01/14 00:41:32;;;;;;;;;;;21.40;36.50;;;;;;483639;246;2254;-43
2023/01/14 00:43:33;;;;;;;;;;;21.40;36.50;;;;;;483635;246;2187;-44
2023/01/14 00:45:35;;;;;;;;;;;21.40;36.50;;;;;;483749;246;1803;-44
2023/01/14 00:47:36;;;;;;;;;;;21.40;36.50;;;;;;483709;246;1901;-44
2023/01/14 00:49:37;;;;;;;;;;;21.40;36.50;;;;;;483740;246;2035;-43
2023/01/14 00:51:39;;;;;;;;;;;21.40;36.50;;;;;;483564;246;2694;-43
2023/01/14 00:53:40;;;;;;;;;;;21.40;36.50;;;;;;483725;246;1738;-43
2023/01/14 00:55:41;;;;;;;;;;;21.40;36.50;;;;;;483720;246;1655;-44
2023/01/14 00:57:42;;;;;;;;;;;21.40;36.50;;;;;;483772;246;1668;-44
2023/01/14 00:59:44;;;;;;;;;;;21.40;36.50;;;;;;483633;246;1914;-44
2023/01/14 01:01:45;;;;;;;;;;;21.50;36.40;;;;;;483785;246;1668;-44
2023/01/14 01:03:46;;;;;;;;;;;21.50;36.30;;;;;;483565;246;2165;-44
2023/01/14 01:05:48;;;;;;;;;;;21.60;36.20;;;;;;483470;246;1845;-44
2023/01/14 01:07:49;;;;;;;;;;;21.70;36.10;;;;;;483548;246;1663;-44
2023/01/14 01:09:50;;;;;;;;;;;21.70;36.00;;;;;;483578;246;2032;-44
2023/01/14 01:11:52;;;;;;;;;;;21.80;35.90;;;;;;483639;246;2556;-44
2023/01/14 01:13:53;;;;;;;;;;;21.80;35.90;;;;;;483624;246;2397;-44
2023/01/14 01:15:54;;;;;;;;;;;21.80;35.80;;;;;;483588;246;1757;-43
2023/01/14 01:17:56;;;;;;;;;;;21.90;35.80;;;;;;483681;246;2052;-44
2023/01/14 01:19:57;;;;;;;;;;;21.90;35.70;;;;;;483842;246;2115;-44
2023/01/14 01:21:58;;;;;;;;;;;21.90;35.70;;;;;;483540;246;2035;-44
2023/01/14 01:24:00;;;;;;;;;;;22.00;35.70;;;;;;483676;246;2196;-43
2023/01/14 01:26:01;;;;;;;;;;;22.00;35.60;;;;;;483562;246;2030;-43
2023/01/14 01:28:02;;;;;;;;;;;22.00;35.60;;;;;;483435;246;2944;-44
2023/01/14 01:30:04;;;;;;;;;;;22.00;35.60;;;;;;483536;246;2122;-44
2023/01/14 01:32:05;;;;;;;;;;;22.00;35.60;;;;;;483753;246;2006;-44
2023/01/14 01:34:06;;;;;;;;;;;22.00;35.60;;;;;;483555;246;2475;-43
2023/01/14 01:36:08;;;;;;;;;;;22.00;35.60;;;;;;483598;246;1939;-44
2023/01/14 01:38:09;;;;;;;;;;;22.00;35.60;;;;;;483638;246;1737;-44
2023/01/14 01:40:10;;;;;;;;;;;22.00;35.60;;;;;;483731;246;1592;-43
2023/01/14 01:42:12;;;;;;;;;;;22.00;35.60;;;;;;483682;246;1793;-44
2023/01/14 01:44:13;;;;;;;;;;;22.00;35.70;;;;;;483636;246;2204;-43
2023/01/14 01:46:14;;;;;;;;;;;21.90;35.60;;;;;;483936;246;1821;-44
2023/01/14 01:48:16;;;;;;;;;;;22.00;35.70;;;;;;483843;246;1791;-44
2023/01/14 01:50:17;;;;;;;;;;;22.00;35.60;;;;;;483801;246;2353;-44
2023/01/14 01:52:18;;;;;;;;;;;22.00;35.70;;;;;;483782;246;1856;-43
2023/01/14 01:54:20;;;;;;;;;;;22.00;35.70;;;;;;483930;246;1687;-44
2023/01/14 01:56:21;;;;;;;;;;;21.90;35.70;;;;;;483755;246;2008;-44
2023/01/14 01:58:23;;;;;;;;;;;21.90;35.60;;;;;;483929;246;1321;-44
2023/01/14 02:00:24;;;;;;;;;;;22.00;35.70;;;;;;483665;246;1961;-44
2023/01/14 02:02:25;;;;;;;;;;;21.90;35.60;;;;;;483637;246;2520;-43
2023/01/14 02:04:27;;;;;;;;;;;21.90;35.60;;;;;;483577;246;2196;-43
2023/01/14 02:06:28;;;;;;;;;;;21.90;35.70;;;;;;483556;246;2082;-44
2023/01/14 02:08:29;;;;;;;;;;;21.90;35.70;;;;;;483700;246;2182;-44
2023/01/14 02:10:31;;;;;;;;;;;21.90;35.70;;;;;;483715;246;2003;-44
2023/01/14 02:12:32;;;;;;;;;;;21.90;35.70;;;;;;483805;246;1684;-44
2023/01/14 02:14:33;;;;;;;;;;;21.90;35.70;;;;;;483657;246;1929;-44
2023/01/14 02:16:35;;;;;;;;;;;21.90;35.70;;;;;;483855;246;1607;-44
2023/01/14 02:18:36;;;;;;;;;;;21.90;35.80;;;;;;483666;246;1635;-44
2023/01/14 02:20:37;;;;;;;;;;;21.90;35.70;;;;;;483789;246;1665;-44
2023/01/14 02:22:38;;;;;;;;;;;21.90;35.80;;;;;;483950;246;1792;-44
2023/01/14 02:24:40;;;;;;;;;;;21.90;35.80;;;;;;483753;246;2204;-44
2023/01/14 02:26:41;;;;;;;;;;;21.90;35.80;;;;;;483990;246;1667;-44
2023/01/14 02:28:44;;;;;;;;;;;21.90;35.80;;;;;;483781;246;2025;-44
2023/01/14 02:30:44;;;;;;;;;;;21.90;35.70;;;;;;483645;246;2423;-44
2023/01/14 02:32:45;;;;;;;;;;;22.10;35.40;;;;;;483744;246;1724;-43
2023/01/14 02:34:47;;;;;;;;;;;22.20;35.20;;;;;;483824;246;1937;-44
2023/01/14 02:36:48;;;;;;;;;;;22.40;35.00;;;;;;483605;246;1688;-44
2023/01/14 02:38:49;;;;;;;;;;;22.40;34.90;;;;;;483612;246;1747;-44
2023/01/14 02:40:50;;;;;;;;;;;22.40;34.90;;;;;;483498;246;1724;-44
2023/01/14 02:45:11;;;;;;;;;;;22.10;35.30;;;;;;483487;246;2220;-43
2023/01/14 02:47:12;;;;;;;;;;;21.90;35.50;;;;;;483532;246;1742;-43
2023/01/14 02:49:13;;;;;;;;;;;21.90;35.80;;;;;;483726;246;2159;-44
2023/01/14 02:51:15;;;;;;;;;;;21.80;35.90;;;;;;483480;246;1690;-44
2023/01/14 02:53:16;;;;;;;;;;;21.70;36.00;;;;;;483591;242;2786;-44
2023/01/14 02:55:17;;;;;;;;;;;21.70;36.10;;;;;;483643;246;1790;-43
2023/01/14 02:57:19;;;;;;;;;;;21.70;36.10;;;;;;483622;246;1605;-43
2023/01/14 02:59:20;;;;;;;;;;;21.70;36.20;;;;;;483499;246;1653;-43
2023/01/14 03:01:21;;;;;;;;;;;21.60;36.20;;;;;;483525;246;1745;-44
2023/01/14 03:03:23;;;;;;;;;;;21.60;36.30;;;;;;483521;246;1341;-44
2023/01/14 03:05:24;;;;;;;;;;;21.60;36.30;;;;;;483509;246;2242;-44
2023/01/14 03:07:25;;;;;;;;;;;21.50;36.30;;;;;;483689;246;1919;-43
2023/01/14 03:09:27;;;;;;;;;;;21.50;36.40;;;;;;483510;246;1739;-43
2023/01/14 03:11:28;;;;;;;;;;;21.50;36.40;;;;;;483475;246;1756;-44
2023/01/14 03:13:29;;;;;;;;;;;21.50;36.40;;;;;;483499;246;2105;-43
2023/01/14 03:15:31;;;;;;;;;;;21.50;36.50;;;;;;483500;246;1683;-44
2023/01/14 03:17:32;;;;;;;;;;;21.50;36.50;;;;;;483308;246;1784;-43
2023/01/14 03:19:34;;;;;;;;;;;21.40;36.40;;;;;;483751;246;2251;-43
2023/01/14 03:21:35;;;;;;;;;;;21.40;36.50;;;;;;483750;246;2118;-44
2023/01/14 03:23:36;;;;;;;;;;;21.40;36.50;;;;;;483812;246;1596;-43
2023/01/14 03:25:38;;;;;;;;;;;21.40;36.50;;;;;;483895;246;2180;-44
2023/01/14 03:27:39;;;;;;;;;;;21.40;36.50;;;;;;483851;246;2421;-44
2023/01/14 03:29:40;;;;;;;;;;;21.40;36.50;;;;;;484005;246;1771;-44
2023/01/14 03:31:42;;;;;;;;;;;21.40;36.60;;;;;;483882;246;1731;-44
2023/01/14 03:33:43;;;;;;;;;;;21.40;36.60;;;;;;483801;246;1621;-44
2023/01/14 03:35:44;;;;;;;;;;;21.40;36.60;;;;;;483833;246;1874;-44
2023/01/14 03:37:46;;;;;;;;;;;21.40;36.60;;;;;;483713;246;1639;-44
2023/01/14 03:39:47;;;;;;;;;;;21.40;36.50;;;;;;483760;246;1794;-44
2023/01/14 03:44:08;;;;;;;;;;;21.40;36.50;;;;;;483632;246;2093;-44
2023/01/14 03:46:09;;;;;;;;;;;21.40;36.60;;;;;;483732;246;2192;-44
2023/01/14 03:48:10;;;;;;;;;;;21.40;36.60;;;;;;483752;246;2226;-44
2023/01/14 03:50:12;;;;;;;;;;;21.40;36.60;;;;;;483471;246;1976;-44
2023/01/14 03:52:13;;;;;;;;;;;21.30;36.60;;;;;;483528;246;2091;-43
2023/01/14 03:54:14;;;;;;;;;;;21.40;36.60;;;;;;483528;246;1709;-43
2023/01/14 03:56:16;;;;;;;;;;;21.40;36.70;;;;;;483512;246;2386;-44
2023/01/14 03:58:17;;;;;;;;;;;21.30;36.60;;;;;;483481;246;1982;-44
2023/01/14 04:00:18;;;;;;;;;;;21.30;36.60;;;;;;483542;246;2166;-44
2023/01/14 04:02:20;;;;;;;;;;;21.50;36.50;;;;;;483503;246;2119;-44
2023/01/14 04:04:21;;;;;;;;;;;21.70;36.10;;;;;;483515;246;1794;-44
2023/01/14 04:06:22;;;;;;;;;;;21.90;35.80;;;;;;483387;246;2148;-44
2023/01/14 04:08:24;;;;;;;;;;;22.00;35.50;;;;;;483706;246;2105;-44
2023/01/14 04:10:25;;;;;;;;;;;22.20;35.30;;;;;;483641;246;1715;-44
2023/01/14 04:12:26;;;;;;;;;;;22.30;35.10;;;;;;483445;246;1703;-44
2023/01/14 04:16:47;;;;;;;;;;;22.40;34.80;;;;;;483693;246;1939;-44
2023/01/14 04:18:48;;;;;;;;;;;22.50;34.70;;;;;;483726;246;1773;-44
2023/01/14 04:20:50;;;;;;;;;;;22.50;34.60;;;;;;483673;246;2205;-44
2023/01/14 04:22:51;;;;;;;;;;;22.60;34.60;;;;;;483821;245;2008;-44
2023/01/14 04:24:52;;;;;;;;;;;22.60;34.50;;;;;;483776;246;2204;-44
2023/01/14 04:26:53;;;;;;;;;;;22.70;34.50;;;;;;483787;246;2447;-44
2023/01/14 04:28:55;;;;;;;;;;;22.70;34.40;;;;;;483919;246;1587;-44
2023/01/14 04:30:56;;;;;;;;;;;22.80;34.30;;;;;;483819;242;2291;-44
2023/01/14 04:32:58;;;;;;;;;;;22.80;34.20;;;;;;483863;242;1712;-44
2023/01/14 04:34:59;;;;;;;;;;;22.80;34.20;;;;;;483851;246;1600;-44
2023/01/14 04:37:01;;;;;;;;;;;22.90;34.20;;;;;;483885;246;1587;-44
2023/01/14 04:39:02;;;;;;;;;;;22.90;34.10;;;;;;483643;246;2453;-44
2023/01/14 04:41:03;;;;;;;;;;;23.00;34.10;;;;;;483656;246;1947;-44
2023/01/14 04:43:04;;;;;;;;;;;23.00;34.10;;;;;;483542;246;1652;-44
2023/01/14 04:45:05;;;;;;;;;;;23.00;34.00;;;;;;483581;246;2212;-44
2023/01/14 04:47:07;;;;;;;;;;;23.00;33.90;;;;;;483515;246;1806;-44
2023/01/14 04:49:08;;;;;;;;;;;23.00;33.90;;;;;;483500;246;1867;-44
2023/01/14 04:51:09;;;;;;;;;;;23.10;33.90;;;;;;483409;246;1967;-43
2023/01/14 04:53:11;;;;;;;;;;;23.10;33.90;;;;;;483386;246;1693;-44
2023/01/14 04:55:12;;;;;;;;;;;23.10;33.80;;;;;;483454;246;1794;-44
2023/01/14 04:57:13;;;;;;;;;;;23.20;33.80;;;;;;483528;246;1831;-43
2023/01/14 04:59:15;;;;;;;;;;;23.20;33.80;;;;;;483454;246;1697;-44
2023/01/14 05:01:16;;;;;;;;;;;23.20;33.80;;;;;;483518;246;2117;-44
2023/01/14 05:03:17;;;;;;;;;;;23.20;33.70;;;;;;483449;246;2222;-44
2023/01/14 05:05:19;;;;;;;;;;;23.20;33.70;;;;;;483444;246;2446;-44
2023/01/14 05:07:21;;;;;;;;;;;23.20;33.70;;;;;;483515;246;2520;-44
2023/01/14 05:09:22;;;;;;;;;;;23.20;33.60;;;;;;483659;246;2241;-44
2023/01/14 05:11:23;;;;;;;;;;;23.30;33.60;;;;;;483545;246;1893;-44
2023/01/14 05:13:25;;;;;;;;;;;23.30;33.60;;;;;;483486;246;2271;-44
2023/01/14 05:15:26;;;;;;;;;;;23.30;33.50;;;;;;483635;246;1773;-44
2023/01/14 05:17:27;;;;;;;;;;;23.30;33.60;;;;;;483573;246;1669;-44
2023/01/14 05:19:29;;;;;;;;;;;23.30;33.50;;;;;;483623;246;1794;-44
2023/01/14 05:21:30;;;;;;;;;;;23.40;33.60;;;;;;483646;246;2415;-44
2023/01/14 05:23:31;;;;;;;;;;;23.40;33.60;;;;;;483645;246;1992;-44
2023/01/14 05:25:34;;;;;;;;;;;23.40;33.50;;;;;;483616;246;2200;-44
2023/01/14 05:27:34;;;;;;;;;;;23.40;33.60;;;;;;483576;246;2117;-44
2023/01/14 05:29:38;;;;;;;;;;;23.40;33.50;;;;;;483643;246;2009;-44
2023/01/14 05:31:36;;;;;;;;;;;23.40;33.50;;;;;;483495;246;2071;-44
2023/01/14 05:33:38;;;;;;;;;;;23.40;33.50;;;;;;483593;246;1886;-44
2023/01/14 05:35:39;;;;;;;;;;;23.40;33.40;;;;;;483771;246;2164;-44
2023/01/14 05:37:40;;;;;;;;;;;23.40;33.40;;;;;;483776;243;2490;-44
2023/01/14 05:39:42;;;;;;;;;;;23.50;33.40;;;;;;483716;246;1608;-44
2023/01/14 05:46:23;;;;;;;;;;;23.50;33.40;;;;;;483764;246;2172;-44
2023/01/14 05:48:24;;;;;;;;;;;23.50;33.40;;;;;;483837;246;2033;-44
2023/01/14 05:50:26;;;;;;;;;;;23.50;33.30;;;;;;483898;246;1720;-44
2023/01/14 05:52:27;;;;;;;;;;;23.50;33.30;;;;;;483667;246;1757;-44
2023/01/14 05:54:28;;;;;;;;;;;23.50;33.30;;;;;;483912;246;1619;-43
2023/01/14 05:56:30;;;;;;;;;;;23.60;33.40;;;;;;483796;246;1683;-44
2023/01/14 05:58:31;;;;;;;;;;;23.60;33.40;;;;;;483728;246;2083;-44
2023/01/14 06:07:46;;;;;;;;;;;23.30;33.80;;;;;;458122;259;1928;-43
2023/01/14 06:09:48;;;;;;;;;;;23.10;34.10;;;;;;458033;259;2228;-44
2023/01/14 06:12:01;;;;;;;;;;;22.90;34.40;;;;;;458026;259;1887;-44
2023/01/14 06:13:53;;;;;;;;;;;22.80;34.70;;;;;;458196;260;1983;-44
2023/01/14 06:15:55;;;;;;;;;;;22.70;34.80;;;;;;458116;257;2933;-44
2023/01/14 06:17:58;;;;;;;;;;;22.70;34.80;;;;;;458112;260;1944;-44
2023/01/14 06:19:56;;;;;;;;;;;22.70;34.90;;;;;;458035;260;2333;-44
2023/01/14 06:21:57;;;;;;;;;;;22.70;34.80;;;;;;458111;260;2010;-44
2023/01/14 06:23:59;;;;;;;;;;;22.70;34.80;;;;;;458214;257;1741;-44
2023/01/14 06:26:00;;;;;;;;;;;22.80;34.80;;;;;;458120;257;2209;-43
2023/01/14 06:28:01;;;;;;;;;;;22.70;34.70;;;;;;457981;260;1705;-44
2023/01/14 06:30:03;;;;;;;;;;;22.80;34.80;;;;;;459742;259;2112;-44
2023/01/14 06:32:04;;;;;;;;;;;22.80;34.80;;;;;;458030;259;2285;-44
2023/01/14 06:34:05;;;;;;;;;;;22.70;34.80;;;;;;459737;259;2084;-44
2023/01/14 06:36:07;;;;;;;;;;;22.70;34.80;;;;;;458039;259;2000;-43
2023/01/14 06:38:08;;;;;;;;;;;22.80;34.80;;;;;;459762;259;1762;-44
2023/01/14 06:40:09;;;;;;;;;;;22.70;34.80;;;;;;471990;246;2746;-44
2023/01/14 06:42:11;;;;;;;;;;;22.70;34.90;;;;;;484879;245;1943;-44
2023/01/14 06:44:13;;;;;;;;;;;22.70;34.90;;;;;;482443;246;1692;-43
2023/01/14 06:46:14;;;;;;;;;;;22.70;35.00;;;;;;483827;245;2491;-44
2023/01/14 06:48:15;;;;;;;;;;;22.70;35.00;;;;;;483461;246;2145;-43
2023/01/14 06:50:18;;;;;;;;;;;22.70;34.90;;;;;;483656;246;1760;-44
2023/01/14 06:52:19;;;;;;;;;;;22.70;35.00;;;;;;483634;246;3208;-44
2023/01/14 06:54:20;;;;;;;;;;;22.60;35.00;;;;;;483569;246;2091;-43
2023/01/14 06:56:21;;;;;;;;;;;22.60;35.10;;;;;;483588;246;1702;-44
2023/01/14 06:58:23;;;;;;;;;;;22.60;35.20;;;;;;483591;246;1959;-44
2023/01/14 07:00:24;;;;;;;;;;;22.50;35.10;;;;;;483400;246;2399;-44
2023/01/14 07:02:25;;;;;;;;;;;22.50;35.20;;;;;;483442;243;1628;-44
2023/01/14 07:04:27;;;;;;;;;;;22.60;35.20;;;;;;483660;246;2080;-44
2023/01/14 07:06:28;;;;;;;;;;;22.50;35.20;;;;;;483598;246;2183;-44
2023/01/14 07:08:29;;;;;;;;;;;22.50;35.20;;;;;;483470;246;1701;-44
2023/01/14 07:10:31;;;;;;;;;;;22.50;35.30;;;;;;483600;246;1719;-44
2023/01/14 07:12:32;;;;;;;;;;;22.40;35.30;;;;;;483613;246;2192;-44
2023/01/14 07:14:33;;;;;;;;;;;22.40;35.30;;;;;;483705;246;1682;-44
2023/01/14 07:16:35;;;;;;;;;;;22.40;35.30;;;;;;483704;246;1999;-44
2023/01/14 07:18:36;;;;;;;;;;;22.40;35.40;;;;;;483594;246;2142;-44
2023/01/14 07:20:37;;;;;;;;;;;22.40;35.40;;;;;;483803;246;1735;-43
2023/01/14 07:22:39;;;;;;;;;;;22.40;35.40;;;;;;483456;246;2106;-44
2023/01/14 07:24:40;;;;;;;;;;;22.40;35.40;;;;;;483449;246;1563;-43
2023/01/14 07:26:41;;;;;;;;;;;22.30;35.50;;;;;;483492;246;2156;-44
2023/01/14 07:28:43;;;;;;;;;;;22.30;35.50;;;;;;483626;246;2503;-44
2023/01/14 07:30:44;;;;;;;;;;;22.30;35.50;;;;;;483580;246;1689;-44
2023/01/14 07:32:45;;;;;;;;;;;22.30;35.50;;;;;;483588;246;2021;-44
2023/01/14 07:34:47;;;;;;;;;;;22.30;35.60;;;;;;483629;246;2176;-44
2023/01/14 07:36:48;;;;;;;;;;;22.30;35.60;;;;;;483545;246;1564;-44
2023/01/14 07:38:49;;;;;;;;;;;22.20;35.60;;;;;;483591;246;1826;-44
2023/01/14 07:40:52;;;;;;;;;;;22.20;35.60;;;;;;483593;246;2123;-43
2023/01/14 07:42:52;;;;;;;;;;;22.20;35.70;;;;;;483611;246;1612;-44
2023/01/14 07:44:53;;;;;;;;;;;22.20;35.70;;;;;;483772;246;1939;-44
2023/01/14 07:46:55;;;;;;;;;;;22.20;35.70;;;;;;483690;246;2200;-44
2023/01/14 07:48:56;;;;;;;;;;;22.20;35.70;;;;;;483715;246;2502;-43
2023/01/14 07:50:57;;;;;;;;;;;22.20;35.60;;;;;;483708;246;1937;-44
2023/01/14 07:52:59;;;;;;;;;;;22.20;35.70;;;;;;484013;246;1676;-43
2023/01/14 07:55:00;;;;;;;;;;;22.10;35.80;;;;;;483695;246;1932;-44
2023/01/14 07:57:01;;;;;;;;;;;22.00;36.00;;;;;;483720;246;2049;-43
2023/01/14 07:59:02;;;;;;;;;;;22.00;36.10;;;;;;483570;246;1742;-44
2023/01/14 08:01:04;;;;;;;;;;;21.90;36.10;;;;;;483595;246;1919;-44
2023/01/14 08:03:05;;;;;;;;;;;21.90;36.20;;;;;;483441;246;2124;-44
2023/01/14 08:05:06;;;;;;;;;;;21.90;36.30;;;;;;483466;246;1881;-43
2023/01/14 08:07:08;;;;;;;;;;;21.80;36.30;;;;;;483567;246;2203;-43
2023/01/14 08:09:09;;;;;;;;;;;21.80;36.30;;;;;;483484;243;2052;-44
2023/01/14 08:11:10;;;;;;;;;;;21.80;36.40;;;;;;483608;242;1808;-44
2023/01/14 08:13:12;;;;;;;;;;;21.70;36.40;;;;;;483597;246;1934;-43
2023/01/14 08:15:13;;;;;;;;;;;21.70;36.40;;;;;;483662;246;2020;-44
2023/01/14 08:17:14;;;;;;;;;;;21.70;36.50;;;;;;483618;246;2105;-43
2023/01/14 08:19:17;;;;;;;;;;;21.70;36.50;;;;;;483680;246;2202;-44
2023/01/14 08:21:17;;;;;;;;;;;21.70;36.50;;;;;;483580;246;2259;-44
2023/01/14 08:23:18;;;;;;;;;;;21.70;36.50;;;;;;483844;246;1698;-44
2023/01/14 08:25:20;;;;;;;;;;;21.70;36.60;;;;;;483643;246;1720;-44
2023/01/14 08:27:21;;;;;;;;;;;21.60;36.60;;;;;;483708;246;2184;-43
2023/01/14 08:29:22;;;;;;;;;;;21.60;36.60;;;;;;483814;246;2461;-44
2023/01/14 08:31:24;;;;;;;;;;;21.60;36.60;;;;;;483901;246;1893;-43
2023/01/14 08:33:25;;;;;;;;;;;21.60;36.60;;;;;;483784;246;1903;-43
2023/01/14 08:35:26;;;;;;;;;;;21.60;36.70;;;;;;483900;246;1656;-43
2023/01/14 08:37:28;;;;;;;;;;;21.50;36.60;;;;;;483762;246;1722;-44
2023/01/14 08:39:29;;;;;;;;;;;21.60;36.60;;;;;;483794;246;1868;-44
2023/01/14 08:41:30;;;;;;;;;;;21.60;36.70;;;;;;483718;246;2129;-44
2023/01/14 08:43:32;;;;;;;;;;;21.60;36.60;;;;;;483814;246;1754;-43
2023/01/14 08:45:33;;;;;;;;;;;21.50;36.70;;;;;;483621;246;1946;-43
2023/01/14 08:47:34;;;;;;;;;;;21.60;36.70;;;;;;483707;246;2159;-44
2023/01/14 08:49:35;;;;;;;;;;;21.50;36.70;;;;;;483591;246;1598;-44
2023/01/14 08:51:37;;;;;;;;;;;21.50;36.70;;;;;;483512;246;2014;-43
2023/01/14 08:53:38;;;;;;;;;;;21.50;36.70;;;;;;483529;246;2118;-43
2023/01/14 08:55:40;;;;;;;;;;;21.50;36.70;;;;;;483656;246;1895;-44
2023/01/14 08:57:41;;;;;;;;;;;21.50;36.70;;;;;;483715;242;1743;-44
2023/01/14 08:59:42;;;;;;;;;;;21.50;36.70;;;;;;483671;246;1818;-44
2023/01/14 09:01:43;;;;;;;;;;;21.40;36.70;;;;;;483568;246;2223;-43
2023/01/14 09:03:45;;;;;;;;;;;21.50;36.80;;;;;;483703;246;1823;-44
2023/01/14 09:05:46;;;;;;;;;;;21.50;36.70;;;;;;483492;246;1745;-43
2023/01/14 09:17:08;;;;;;;;;;;21.40;36.80;;;;;;483491;246;1956;-44
2023/01/14 09:19:08;;;;;;;;;;;21.40;36.80;;;;;;483414;246;2200;-44
2023/01/14 09:21:10;;;;;;;;;;;21.40;36.80;;;;;;483573;246;1796;-44
2023/01/14 09:23:11;;;;;;;;;;;21.40;36.80;;;;;;483518;246;1573;-43
2023/01/14 09:25:12;;;;;;;;;;;21.40;36.80;;;;;;483513;246;1826;-44
2023/01/14 09:27:14;;;;;;;;;;;21.40;36.90;;;;;;483548;246;2164;-43
2023/01/14 09:29:15;;;;;;;;;;;21.40;36.90;;;;;;483543;246;1974;-43
2023/01/14 09:31:16;;;;;;;;;;;21.30;36.90;;;;;;483717;246;1768;-44
2023/01/14 09:33:18;;;;;;;;;;;21.40;37.00;;;;;;483592;246;1967;-44
2023/01/14 09:35:19;;;;;;;;;;;21.40;37.00;;;;;;483564;246;2139;-44
2023/01/14 09:37:20;;;;;;;;;;;21.30;36.90;;;;;;483434;246;1728;-43
2023/01/14 09:39:22;;;;;;;;;;;21.30;37.00;;;;;;483730;246;1687;-44
2023/01/14 09:41:23;;;;;;;;;;;21.30;37.00;;;;;;483546;246;1897;-44
2023/01/14 09:43:25;;;;;;;;;;;21.40;37.00;;;;;;483667;246;1692;-44
2023/01/14 09:45:26;;;;;;;;;;;21.30;37.00;;;;;;483559;246;1753;-44
2023/01/14 09:47:28;;;;;;;;;;;21.30;36.90;;;;;;483859;246;2183;-44
2023/01/14 09:49:28;;;;;;;;;;;21.30;36.90;;;;;;483639;246;2046;-44
2023/01/14 09:51:30;;;;;;;;;;;21.30;36.90;;;;;;483522;246;2366;-43
2023/01/14 09:53:31;;;;;;;;;;;21.30;36.90;;;;;;483653;246;2871;-44
2023/01/14 09:55:32;;;;;;;;;;;21.30;36.90;;;;;;483597;246;2069;-44
2023/01/14 09:57:34;;;;;;;;;;;21.30;36.90;;;;;;483478;246;2129;-44
2023/01/14 09:59:35;;;;;;;;;;;21.30;37.00;;;;;;483592;246;1932;-43
2023/01/14 10:01:37;;;;;;;;;;;21.30;37.00;;;;;;483636;246;1628;-44
2023/01/14 10:03:38;;;;;;;;;;;21.30;36.90;;;;;;483575;246;2292;-44
2023/01/14 10:05:39;;;;;;;;;;;21.30;36.90;;;;;;483589;246;1441;-44
2023/01/14 10:07:40;;;;;;;;;;;21.30;36.90;;;;;;483696;246;2204;-44
2023/01/14 10:09:42;;;;;;;;;;;21.30;36.90;;;;;;483565;246;1963;-44
2023/01/14 10:11:43;;;;;;;;;;;21.30;36.80;;;;;;483603;246;1905;-44
2023/01/14 10:13:44;;;;;;;;;;;21.40;36.80;;;;;;483515;246;1613;-44
2023/01/14 10:15:46;;;;;;;;;;;21.40;36.80;;;;;;483568;246;1458;-44
2023/01/14 10:17:47;;;;;;;;;;;21.40;36.70;;;;;;483679;246;1661;-44
2023/01/14 10:19:48;;;;;;;;;;;21.50;36.60;;;;;;483823;246;2055;-44
2023/01/14 10:21:50;;;;;;;;;;;21.50;36.50;;;;;;483691;246;2169;-44
2023/01/14 10:23:51;;;;;;;;;;;21.60;36.40;;;;;;483630;246;1703;-44
2023/01/14 10:25:52;;;;;;;;;;;21.70;36.40;;;;;;483810;246;1908;-44
2023/01/14 10:27:54;;;;;;;;;;;21.70;36.20;;;;;;483674;246;2161;-44
2023/01/14 10:29:55;;;;;;;;;;;21.80;36.20;;;;;;483548;246;1929;-44
2023/01/14 10:31:57;;;;;;;;;;;21.80;36.10;;;;;;483651;246;1888;-44
2023/01/14 10:33:58;;;;;;;;;;;21.80;36.10;;;;;;483595;246;2202;-44
2023/01/14 10:35:59;;;;;;;;;;;21.80;36.00;;;;;;483557;246;2606;-44
2023/01/14 10:38:00;;;;;;;;;;;21.90;36.00;;;;;;483551;246;1710;-44
2023/01/14 10:40:02;;;;;;;;;;;21.90;36.00;;;;;;483497;246;1947;-44
2023/01/14 10:42:04;;;;;;;;;;;21.90;36.00;;;;;;483407;246;1977;-44
2023/01/14 10:44:05;;;;;;;;;;;21.90;35.90;;;;;;483403;246;2223;-43
2023/01/14 10:46:06;;;;;;;;;;;21.90;36.00;;;;;;483430;246;1943;-44
2023/01/14 10:48:07;;;;;;;;;;;21.90;36.00;;;;;;483359;246;2200;-44
2023/01/14 10:50:09;;;;;;;;;;;21.90;36.00;;;;;;483361;246;1788;-44
2023/01/14 10:52:10;;;;;;;;;;;21.90;36.00;;;;;;483403;246;2191;-44
2023/01/14 10:54:11;;;;;;;;;;;21.90;35.90;;;;;;483356;246;1691;-43
2023/01/14 10:56:13;;;;;;;;;;;21.90;35.90;;;;;;483455;246;2214;-44
2023/01/14 10:58:15;;;;;;;;;;;21.90;35.90;;;;;;483591;246;1686;-44
2023/01/14 11:00:15;;;;;;;;;;;21.90;35.90;;;;;;483392;246;2313;-43
2023/01/14 11:02:17;;;;;;;;;;;21.90;36.00;;;;;;483464;246;1984;-44
2023/01/14 11:04:18;;;;;;;;;;;21.90;36.00;;;;;;483425;246;1877;-44
2023/01/14 11:06:20;;;;;;;;;;;21.90;35.90;;;;;;483413;246;1610;-44
2023/01/14 11:08:21;;;;;;;;;;;21.90;36.00;;;;;;483427;246;2496;-44
2023/01/14 11:10:22;;;;;;;;;;;21.90;36.00;;;;;;483597;246;1702;-44
2023/01/14 11:12:24;;;;;;;;;;;21.80;36.00;;;;;;483410;246;1668;-44
2023/01/14 11:14:25;;;;;;;;;;;21.90;36.00;;;;;;483624;246;1757;-44
2023/01/14 11:16:27;;;;;;;;;;;21.80;36.00;;;;;;483621;246;2215;-44
2023/01/14 11:18:27;;;;;;;;;;;21.90;36.00;;;;;;483637;246;2112;-44
2023/01/14 11:20:29;;;;;;;;;;;21.90;36.10;;;;;;483649;246;2615;-43
2023/01/14 11:22:30;;;;;;;;;;;21.80;36.00;;;;;;483625;246;1718;-43
2023/01/14 11:24:31;;;;;;;;;;;21.90;36.00;;;;;;483636;246;3383;-44
2023/01/14 11:26:33;;;;;;;;;;;21.90;36.00;;;;;;483693;246;1690;-43
2023/01/14 11:28:34;;;;;;;;;;;21.80;36.00;;;;;;483722;246;2196;-44
2023/01/14 11:30:35;;;;;;;;;;;21.80;36.00;;;;;;483777;246;1908;-44
2023/01/14 11:32:37;;;;;;;;;;;21.80;36.00;;;;;;483918;246;1933;-44
2023/01/14 11:34:38;;;;;;;;;;;21.80;36.10;;;;;;483960;246;2104;-44
2023/01/14 11:36:39;;;;;;;;;;;21.80;36.10;;;;;;483932;246;1689;-44
2023/01/14 11:38:41;;;;;;;;;;;21.80;36.10;;;;;;484403;246;1840;-44
2023/01/14 11:43:01;;;;;;;;;;;21.80;36.10;;;;;;484026;246;1815;-44
2023/01/14 11:45:03;;;;;;;;;;;21.80;36.10;;;;;;484100;246;2156;-44
2023/01/14 11:47:04;;;;;;;;;;;21.80;36.10;;;;;;483984;246;1888;-44
2023/01/14 11:49:05;;;;;;;;;;;21.80;36.20;;;;;;483900;246;2188;-44
2023/01/14 11:51:06;;;;;;;;;;;21.80;36.10;;;;;;483800;246;2158;-44
2023/01/14 11:53:15;;;;;;;;;;;21.80;36.10;;;;;;483844;246;1698;-44
2023/01/14 11:55:10;;;;;;;;;;;21.80;36.10;;;;;;483482;246;2046;-44
2023/01/14 11:57:11;;;;;;;;;;;21.80;36.10;;;;;;483631;246;1657;-44
2023/01/14 11:59:12;;;;;;;;;;;21.80;36.10;;;;;;483738;246;1897;-44
2023/01/14 12:01:14;;;;;;;;;;;21.80;36.00;;;;;;483737;246;1726;-44
2023/01/14 12:03:15;;;;;;;;;;;21.80;36.10;;;;;;483590;246;1718;-44
2023/01/14 12:05:16;;;;;;;;;;;21.80;36.10;;;;;;483614;246;1731;-44
2023/01/14 12:07:18;;;;;;;;;;;21.80;36.10;;;;;;483520;246;1589;-43
2023/01/14 12:09:19;;;;;;;;;;;21.80;36.10;;;;;;483499;246;2223;-44
2023/01/14 12:11:20;;;;;;;;;;;21.80;36.10;;;;;;483560;246;1698;-44
2023/01/14 12:18:07;;;;;;;;;;;21.80;36.00;;;;;;483473;242;1690;-44
2023/01/14 12:20:09;;;;;;;;;;;21.80;36.00;;;;;;483546;246;1991;-43
2023/01/14 12:22:15;;;;;;;;;;;21.80;36.00;;;;;;483622;246;2250;-43
2023/01/14 12:24:12;;;;;;;;;;;21.80;36.10;;;;;;483267;246;1841;-44
2023/01/14 12:26:13;;;;;;;;;;;21.80;36.00;;;;;;483604;246;1975;-44
2023/01/14 12:28:14;;;;;;;;;;;21.80;36.00;;;;;;483725;246;2180;-44
2023/01/14 12:30:16;;;;;;;;;;;21.90;36.10;;;;;;483662;246;1820;-44
2023/01/14 12:32:17;;;;;;;;;;;21.90;36.00;;;;;;483976;246;1745;-44